EKSB/SGD METAR and TAF weather

Enter ICAO airport designator
Station Type Date Time Source
EKSB METAR 2023/01/30 11:50 UTC NOAA

EKSB 301150Z 29018G30KT 250V310 9999 SCT022 06/02 Q1000


Station Type Date Time Source
EKSB Decoded METAR 2023/01/30 11:50 UTC NOAA

Soenderborg Lufthavn, Denmark (EKSB) 54-58N 009-47E 14M
Jan 30, 2023 - 06:50 AM EST / 2023.01.30 1150 UTC
Wind: from the WNW (290 degrees) at 21 MPH (18 KT) gusting to 35 MPH (30 KT) (direction variable):0
Visibility: greater than 7 mile(s):0
Sky conditions: partly cloudy
Temperature: 42 F (6 C)
Dew Point: 35 F (2 C)
Relative Humidity: 75%
Pressure (altimeter): 29.53 in. Hg (1000 hPa)
ob: EKSB 301150Z 29018G30KT 250V310 9999 SCT022 06/02 Q1000
cycle: 12

Station Type Date Time Source
EKSB TAF 2016/01/27 09:03 UTC NOAA

TAF TAF EKSB 270856Z 2709/2721 23022KT 5000 -RA BR BKN008
TEMPO 2709/2721 24025G40KT 2000 RADZ BKN004

Example: see airport list